createdAt,value
2017-06-01T00:00:32.445Z,12.88
2017-06-01T00:01:48.319Z,12.89
2017-06-01T00:03:03.757Z,12.89
2017-06-01T00:04:19.391Z,12.84
2017-06-01T00:05:34.959Z,12.77
2017-06-01T00:06:49.375Z,12.77
2017-06-01T00:08:04.772Z,12.75
2017-06-01T00:09:20.132Z,12.77
2017-06-01T00:10:35.540Z,12.78
2017-06-01T00:11:49.918Z,12.63
2017-06-01T00:13:05.390Z,12.63
2017-06-01T00:14:20.525Z,12.62
2017-06-01T00:15:35.900Z,12.62
2017-06-01T00:16:51.513Z,12.63
2017-06-01T00:18:05.701Z,12.64
2017-06-01T00:19:21.134Z,12.64
2017-06-01T00:20:36.840Z,12.55
2017-06-01T00:21:51.149Z,12.57
2017-06-01T00:23:06.593Z,12.56
2017-06-01T00:24:22.130Z,12.55
2017-06-01T00:25:37.635Z,12.55
2017-06-01T00:26:53.340Z,12.47
2017-06-01T00:28:09.110Z,12.42
2017-06-01T00:29:24.644Z,12.37
2017-06-01T00:30:40.024Z,12.34
2017-06-01T00:31:55.797Z,12.34
2017-06-01T00:33:11.233Z,12.26
2017-06-01T00:34:26.693Z,12.22
2017-06-01T00:35:42.166Z,12.27
2017-06-01T00:36:58.114Z,12.15
2017-06-01T00:38:12.285Z,12.26
2017-06-01T00:39:27.745Z,12.22
2017-06-01T00:40:41.922Z,12.09
2017-06-01T00:41:57.645Z,12.08
2017-06-01T00:43:13.412Z,12.09
2017-06-01T00:44:28.860Z,12.04
2017-06-01T00:45:44.321Z,12.11
2017-06-01T00:46:59.674Z,12.04
2017-06-01T00:48:15.145Z,12.04
2017-06-01T00:49:30.813Z,11.91
2017-06-01T00:50:46.242Z,11.9
2017-06-01T00:52:01.934Z,11.87
2017-06-01T00:53:15.729Z,11.83
2017-06-01T00:54:29.890Z,11.74
2017-06-01T00:55:45.332Z,11.76
2017-06-01T00:56:58.443Z,11.53
2017-06-01T00:58:13.914Z,11.57
2017-06-01T00:59:27.932Z,11.59
2017-06-01T01:00:43.390Z,11.59
2017-06-01T01:01:59.072Z,11.48
2017-06-01T01:03:14.527Z,11.48
2017-06-01T01:04:29.736Z,11.52
2017-06-01T01:05:45.150Z,11.49
2017-06-01T01:07:00.839Z,11.46
2017-06-01T01:08:16.338Z,11.39
2017-06-01T01:09:31.868Z,11.42
2017-06-01T01:10:46.008Z,11.38
2017-06-01T01:12:00.180Z,11.4
2017-06-01T01:13:15.900Z,11.3
2017-06-01T01:14:31.410Z,11.34
2017-06-01T01:15:46.851Z,11.25
2017-06-01T01:17:02.323Z,11.28
2017-06-01T01:18:18.018Z,11.28
2017-06-01T01:19:32.435Z,11.15
2017-06-01T01:20:46.582Z,11.15
2017-06-01T01:22:02.032Z,11.2
2017-06-01T01:23:17.655Z,11.13
2017-06-01T01:24:33.167Z,11.13
2017-06-01T01:25:49.043Z,11.12
2017-06-01T01:27:03.133Z,11.09
2017-06-01T01:28:18.791Z,11.1
2017-06-01T01:29:34.226Z,11
2017-06-01T01:30:49.643Z,11.02
2017-06-01T01:32:05.121Z,10.9
2017-06-01T01:33:20.773Z,10.92
2017-06-01T01:34:35.013Z,10.87
2017-06-01T01:35:49.045Z,10.92
2017-06-01T01:37:04.514Z,10.94
2017-06-01T01:38:20.101Z,10.88
2017-06-01T01:39:35.531Z,10.92
2017-06-01T01:40:51.071Z,10.92
2017-06-01T01:42:06.487Z,10.91
2017-06-01T01:43:20.817Z,10.88
2017-06-01T01:44:36.370Z,10.92
2017-06-01T01:45:51.854Z,10.94
2017-06-01T01:47:07.305Z,10.88
2017-06-01T01:48:21.487Z,10.9
2017-06-01T01:49:34.338Z,10.92
2017-06-01T01:50:49.781Z,10.91
2017-06-01T01:52:05.477Z,10.94
2017-06-01T01:53:21.158Z,10.87
2017-06-01T01:54:36.580Z,10.92
2017-06-01T01:55:52.077Z,10.88
2017-06-01T01:57:06.209Z,10.92
2017-06-01T01:58:20.574Z,10.94
2017-06-01T01:59:36.022Z,10.95
2017-06-01T02:00:51.503Z,11.03
2017-06-01T02:02:06.959Z,10.98
2017-06-01T02:03:22.642Z,11.02
2017-06-01T02:04:38.093Z,11.05
2017-06-01T02:05:53.607Z,11.02
2017-06-01T02:07:09.116Z,11.02
2017-06-01T02:08:24.751Z,11.1
2017-06-01T02:09:37.808Z,11.12
2017-06-01T02:10:53.248Z,11.08
2017-06-01T02:12:07.413Z,11.06
2017-06-01T02:13:21.514Z,11.05
2017-06-01T02:14:35.873Z,10.97
2017-06-01T02:15:51.248Z,10.97
2017-06-01T02:17:06.684Z,10.91
2017-06-01T02:18:22.134Z,10.97
2017-06-01T02:19:37.762Z,10.97
2017-06-01T02:20:53.438Z,10.92
2017-06-01T02:22:08.797Z,10.98
2017-06-01T02:23:24.350Z,10.91
2017-06-01T02:24:40.042Z,10.92
2017-06-01T02:25:55.450Z,10.83
2017-06-01T02:27:08.239Z,10.94
2017-06-01T02:28:23.751Z,10.87
2017-06-01T02:29:39.434Z,10.83
2017-06-01T02:30:54.842Z,10.83
2017-06-01T02:32:10.473Z,10.8
2017-06-01T02:33:26.129Z,10.79
2017-06-01T02:34:40.261Z,10.85
2017-06-01T02:35:55.918Z,10.8
2017-06-01T02:37:11.368Z,10.88
2017-06-01T02:38:26.854Z,10.72
2017-06-01T02:39:42.351Z,10.66
2017-06-01T02:40:57.811Z,10.7
2017-06-01T02:42:13.188Z,10.67
2017-06-01T02:43:28.617Z,10.9
2017-06-01T02:44:42.765Z,10.76
2017-06-01T02:45:58.203Z,10.69
2017-06-01T02:47:10.886Z,10.69
2017-06-01T02:48:24.814Z,10.69
2017-06-01T02:49:39.255Z,10.69
2017-06-01T02:50:54.866Z,10.67
2017-06-01T02:52:10.550Z,10.72
2017-06-01T02:53:26.011Z,10.69
2017-06-01T02:54:41.605Z,10.73
2017-06-01T02:55:57.071Z,10.61
2017-06-01T02:57:11.183Z,10.52
2017-06-01T02:58:23.715Z,10.57
2017-06-01T02:59:37.983Z,10.52
2017-06-01T03:00:53.727Z,10.63
2017-06-01T03:02:09.191Z,10.58
2017-06-01T03:03:24.630Z,10.57
2017-06-01T03:04:40.083Z,10.52
2017-06-01T03:05:55.702Z,10.54
2017-06-01T03:07:09.577Z,10.59
2017-06-01T03:08:25.044Z,10.51
2017-06-01T03:09:40.472Z,10.47
2017-06-01T03:10:56.068Z,10.45
2017-06-01T03:12:11.500Z,10.51
2017-06-01T03:13:26.928Z,10.48
2017-06-01T03:14:42.308Z,10.48
2017-06-01T03:15:58.270Z,10.45
2017-06-01T03:17:13.724Z,10.43
2017-06-01T03:18:29.102Z,10.43
2017-06-01T03:19:44.565Z,10.43
2017-06-01T03:21:00.204Z,10.37
2017-06-01T03:22:15.662Z,10.34
2017-06-01T03:23:31.222Z,10.43
2017-06-01T03:24:46.633Z,10.34
2017-06-01T03:26:02.283Z,10.37
2017-06-01T03:27:18.012Z,10.39
2017-06-01T03:28:32.054Z,10.36
2017-06-01T03:29:46.327Z,10.29
2017-06-01T03:31:01.945Z,10.27
2017-06-01T03:32:17.364Z,10.29
2017-06-01T03:33:31.496Z,10.3
2017-06-01T03:34:46.932Z,10.34
2017-06-01T03:35:59.938Z,10.33
2017-06-01T03:37:15.394Z,10.27
2017-06-01T03:38:29.859Z,10.19
2017-06-01T03:39:44.016Z,10.21
2017-06-01T03:40:59.666Z,10.15
2017-06-01T03:42:13.701Z,10.21
2017-06-01T03:43:29.058Z,10.19
2017-06-01T03:44:44.580Z,10.17
2017-06-01T03:45:59.849Z,10.18
2017-06-01T03:47:15.446Z,10.13
2017-06-01T03:48:30.891Z,10.24
2017-06-01T03:49:46.372Z,10.22
2017-06-01T03:51:01.989Z,10.22
2017-06-01T03:52:17.514Z,10.22
2017-06-01T03:53:32.955Z,10.26
2017-06-01T03:54:48.481Z,10.32
2017-06-01T03:56:04.400Z,10.33
2017-06-01T03:57:18.390Z,10.33
2017-06-01T03:58:33.852Z,10.32
2017-06-01T03:59:49.280Z,10.37
2017-06-01T04:01:03.630Z,10.37
2017-06-01T04:02:19.080Z,10.4
2017-06-01T04:03:34.561Z,10.39
2017-06-01T04:04:50.045Z,10.37
2017-06-01T04:06:06.006Z,10.4
2017-06-01T04:07:21.450Z,10.36
2017-06-01T04:08:36.838Z,10.42
2017-06-01T04:09:52.316Z,10.34
2017-06-01T04:11:08.015Z,10.36
2017-06-01T04:12:23.493Z,10.45
2017-06-01T04:13:39.233Z,10.55
2017-06-01T04:14:54.675Z,10.51
2017-06-01T04:16:10.321Z,10.48
2017-06-01T04:17:25.793Z,10.61
2017-06-01T04:18:41.286Z,10.59
2017-06-01T04:19:56.825Z,10.61
2017-06-01T04:21:12.456Z,10.58
2017-06-01T04:22:27.960Z,10.59
2017-06-01T04:23:42.095Z,10.57
2017-06-01T04:24:57.534Z,10.67
2017-06-01T04:26:13.149Z,10.72
2017-06-01T04:27:28.558Z,10.69
2017-06-01T04:28:44.128Z,10.73
2017-06-01T04:29:58.247Z,10.72
2017-06-01T04:31:12.260Z,10.69
2017-06-01T04:32:27.913Z,10.77
2017-06-01T04:33:43.805Z,10.85
2017-06-01T04:34:59.226Z,10.7
2017-06-01T04:36:14.677Z,10.75
2017-06-01T04:37:30.329Z,10.8
2017-06-01T04:38:45.763Z,10.83
2017-06-01T04:40:01.210Z,10.79
2017-06-01T04:41:17.074Z,10.91
2017-06-01T04:42:32.536Z,10.88
2017-06-01T04:43:46.680Z,10.94
2017-06-01T04:45:01.762Z,10.88
2017-06-01T04:46:17.197Z,11.02
2017-06-01T04:47:32.479Z,10.9
2017-06-01T04:48:47.925Z,10.91
2017-06-01T04:50:03.418Z,11.02
2017-06-01T04:51:18.808Z,10.9
2017-06-01T04:52:34.557Z,10.98
2017-06-01T04:53:48.697Z,11.06
2017-06-01T04:55:04.135Z,11.05
2017-06-01T04:56:19.643Z,11
2017-06-01T04:57:33.899Z,10.97
2017-06-01T04:58:49.500Z,10.98
2017-06-01T05:00:05.139Z,10.91
2017-06-01T05:01:20.612Z,11.06
2017-06-01T05:02:35.097Z,11.06
2017-06-01T05:03:50.533Z,11.02
2017-06-01T05:05:05.917Z,11.02
2017-06-01T05:06:21.368Z,11.08
2017-06-01T05:07:37.068Z,11.1
2017-06-01T05:08:52.453Z,11.13
2017-06-01T05:10:07.920Z,11.21
2017-06-01T05:11:23.327Z,11.17
2017-06-01T05:12:39.119Z,11.2
2017-06-01T05:13:53.423Z,11.33
2017-06-01T05:15:08.870Z,11.3
2017-06-01T05:16:24.292Z,11.27
2017-06-01T05:17:39.906Z,11.33
2017-06-01T05:18:55.075Z,11.25
2017-06-01T05:20:10.716Z,11.38
2017-06-01T05:21:26.180Z,11.27
2017-06-01T05:22:41.777Z,11.33
2017-06-01T05:23:57.233Z,11.42
2017-06-01T05:25:11.447Z,11.35
2017-06-01T05:26:25.551Z,11.43
2017-06-01T05:27:41.557Z,11.31
2017-06-01T05:28:57.022Z,11.45
2017-06-01T05:30:12.359Z,11.39
2017-06-01T05:31:26.871Z,11.43
2017-06-01T05:32:42.599Z,11.49
2017-06-01T05:33:58.038Z,11.34
2017-06-01T05:35:13.813Z,11.42
2017-06-01T05:36:29.309Z,11.43
2017-06-01T05:37:45.014Z,11.45
2017-06-01T05:39:00.439Z,11.4
2017-06-01T05:40:16.104Z,11.48
2017-06-01T05:41:31.528Z,11.35
2017-06-01T05:42:47.611Z,11.38
2017-06-01T05:44:02.978Z,11.48
2017-06-01T05:45:18.386Z,11.48
2017-06-01T05:46:33.911Z,11.57
2017-06-01T05:47:49.571Z,11.68
2017-06-01T05:49:03.785Z,11.71
2017-06-01T05:50:17.784Z,11.8
2017-06-01T05:51:33.445Z,11.82
2017-06-01T05:52:47.793Z,11.89
2017-06-01T05:54:03.265Z,11.91
2017-06-01T05:55:18.718Z,11.98
2017-06-01T05:56:34.128Z,12.02
2017-06-01T05:57:49.859Z,12.04
2017-06-01T05:59:05.336Z,12.05
2017-06-01T06:00:19.518Z,12.07
2017-06-01T06:01:35.093Z,12.01
2017-06-01T06:02:49.582Z,12.08
2017-06-01T06:04:02.366Z,12.11
2017-06-01T06:05:17.874Z,12.19
2017-06-01T06:06:32.915Z,12.13
2017-06-01T06:07:48.359Z,12.27
2017-06-01T06:09:02.728Z,12.22
2017-06-01T06:10:18.044Z,12.2
2017-06-01T06:11:33.442Z,12.27
2017-06-01T06:12:48.953Z,12.26
2017-06-01T06:14:04.659Z,12.32
2017-06-01T06:15:20.114Z,12.34
2017-06-01T06:16:35.524Z,12.23
2017-06-01T06:17:51.039Z,12.15
2017-06-01T06:19:06.730Z,12.23
2017-06-01T06:20:21.141Z,12.22
2017-06-01T06:21:36.608Z,12.34
2017-06-01T06:22:50.707Z,12.42
2017-06-01T06:24:03.626Z,12.52
2017-06-01T06:25:17.771Z,12.52
2017-06-01T06:26:32.848Z,12.57
2017-06-01T06:27:48.292Z,12.68
2017-06-01T06:29:02.652Z,12.81
2017-06-01T06:30:18.146Z,12.8
2017-06-01T06:31:33.537Z,12.88
2017-06-01T06:32:48.996Z,12.85
2017-06-01T06:34:03.365Z,12.81
2017-06-01T06:35:18.856Z,12.9
2017-06-01T06:36:34.472Z,12.85
2017-06-01T06:37:48.736Z,12.97
2017-06-01T06:39:03.108Z,13.08
2017-06-01T06:40:18.554Z,13.03
2017-06-01T06:41:33.954Z,12.93
2017-06-01T06:42:49.486Z,12.95
2017-06-01T06:44:03.814Z,12.97
2017-06-01T06:45:19.299Z,12.89
2017-06-01T06:46:34.712Z,13.06
2017-06-01T06:47:50.208Z,13.03
2017-06-01T06:49:05.751Z,13.09
2017-06-01T06:50:19.924Z,13.04
2017-06-01T06:51:35.344Z,13.08
2017-06-01T06:52:50.958Z,13.04
2017-06-01T06:54:05.379Z,12.97
2017-06-01T06:55:19.764Z,12.92
2017-06-01T06:56:33.954Z,12.97
2017-06-01T06:57:49.350Z,12.84
2017-06-01T06:59:03.438Z,12.77
2017-06-01T07:00:19.083Z,12.8
2017-06-01T07:01:34.495Z,12.8
2017-06-01T07:02:49.940Z,12.85
2017-06-01T07:04:04.068Z,12.95
2017-06-01T07:05:19.716Z,13.04
2017-06-01T07:06:33.904Z,13.11
2017-06-01T07:07:49.385Z,13.3
2017-06-01T07:09:04.861Z,13.31
2017-06-01T07:10:20.468Z,13.4
2017-06-01T07:11:35.948Z,13.41
2017-06-01T07:12:51.465Z,13.48
2017-06-01T07:14:06.905Z,13.55
2017-06-01T07:15:21.095Z,13.61
2017-06-01T07:16:36.597Z,13.66
2017-06-01T07:17:52.016Z,13.77
2017-06-01T07:19:07.444Z,13.88
2017-06-01T07:20:23.126Z,13.88
2017-06-01T07:21:35.793Z,13.82
2017-06-01T07:23:22.078Z,13.77
2017-06-01T07:24:36.468Z,13.69
2017-06-01T07:25:51.992Z,13.54
2017-06-01T07:27:06.172Z,13.56
2017-06-01T07:28:21.534Z,13.49
2017-06-01T07:29:37.432Z,13.48
2017-06-01T07:30:52.884Z,13.41
2017-06-01T07:32:07.024Z,13.36
2017-06-01T07:33:19.702Z,13.45
2017-06-01T07:34:35.359Z,13.49
2017-06-01T07:35:50.766Z,13.48
2017-06-01T07:37:06.242Z,13.46
2017-06-01T07:38:21.636Z,13.34
2017-06-01T07:39:34.697Z,13.44
2017-06-01T07:40:50.127Z,13.45
2017-06-01T07:42:05.604Z,13.54
2017-06-01T07:43:21.133Z,13.55
2017-06-01T07:44:35.530Z,13.56
2017-06-01T07:45:50.974Z,13.7
2017-06-01T07:47:06.678Z,13.69
2017-06-01T07:48:22.404Z,13.74
2017-06-01T07:49:38.368Z,13.73
2017-06-01T07:50:53.838Z,13.73
2017-06-01T07:52:09.250Z,13.79
2017-06-01T07:53:24.637Z,13.85
2017-06-01T07:54:37.475Z,13.82
2017-06-01T07:55:50.506Z,13.84
2017-06-01T07:57:06.036Z,13.89
2017-06-01T07:58:21.501Z,13.84
2017-06-01T07:59:36.939Z,13.76
2017-06-01T08:00:52.639Z,13.73
2017-06-01T08:02:07.023Z,13.89
2017-06-01T08:03:21.033Z,13.89
2017-06-01T08:04:36.472Z,14.02
2017-06-01T08:05:52.049Z,14.09
2017-06-01T08:07:06.159Z,14.09
2017-06-01T08:08:20.297Z,14.07
2017-06-01T08:09:35.745Z,14.11
2017-06-01T08:10:51.456Z,14.25
2017-06-01T08:12:05.603Z,14.16
2017-06-01T08:13:21.015Z,14.14
2017-06-01T08:14:36.453Z,14.24
2017-06-01T08:15:52.517Z,14.37
2017-06-01T08:17:07.950Z,14.39
2017-06-01T08:18:23.400Z,14.4
2017-06-01T08:19:39.101Z,14.54
2017-06-01T08:20:54.735Z,14.67
2017-06-01T08:22:10.246Z,14.63
2017-06-01T08:23:25.701Z,14.66
2017-06-01T08:24:41.137Z,14.81
2017-06-01T08:25:56.819Z,14.99
2017-06-01T08:27:12.313Z,15.05
2017-06-01T08:28:27.779Z,15.09
2017-06-01T08:29:42.048Z,15.27
2017-06-01T08:30:57.719Z,15.23
2017-06-01T08:32:13.170Z,15.32
2017-06-01T08:33:28.663Z,15.42
2017-06-01T08:34:44.107Z,15.45
2017-06-01T08:35:58.447Z,15.5
2017-06-01T08:37:12.743Z,15.53
2017-06-01T08:38:26.874Z,15.61
2017-06-01T08:39:42.309Z,15.69
2017-06-01T08:40:57.993Z,15.76
2017-06-01T08:42:13.401Z,15.82
2017-06-01T08:43:27.618Z,15.92
2017-06-01T08:44:43.139Z,16.14
2017-06-01T08:45:58.814Z,16.29
2017-06-01T08:47:14.444Z,16.53
2017-06-01T08:48:29.904Z,16.99
2017-06-01T08:49:45.396Z,17.43
2017-06-01T08:51:01.064Z,17.92
2017-06-01T08:52:16.534Z,18.38
2017-06-01T08:53:32.033Z,19.1
2017-06-01T08:54:47.859Z,19.89
2017-06-01T08:56:04.152Z,20.51
2017-06-01T08:57:19.607Z,21.2
2017-06-01T08:58:35.074Z,21.58
2017-06-01T08:59:50.762Z,21.97
2017-06-01T09:01:06.402Z,22.49
2017-06-01T09:02:21.997Z,22.89
2017-06-01T09:03:36.320Z,23.03
2017-06-01T09:04:51.790Z,23.14
2017-06-01T09:06:07.078Z,22.99
2017-06-01T09:07:21.256Z,23.01
2017-06-01T09:08:36.766Z,23.17
2017-06-01T09:09:49.640Z,23.5
2017-06-01T09:11:05.276Z,23.73
2017-06-01T09:12:16.899Z,23.97
2017-06-01T09:13:32.325Z,24.09
2017-06-01T09:14:47.771Z,24.32
2017-06-01T09:16:03.459Z,24.73
2017-06-01T09:17:19.154Z,25.07
2017-06-01T09:18:34.608Z,25.28
2017-06-01T09:19:50.092Z,25.65
2017-06-01T09:21:05.573Z,25.92
2017-06-01T09:22:20.814Z,26.22
2017-06-01T09:23:36.250Z,26.24
2017-06-01T09:24:50.464Z,26.29
2017-06-01T09:26:04.449Z,26.15
2017-06-01T09:27:20.183Z,25.94
2017-06-01T09:28:35.677Z,25.99
2017-06-01T09:29:49.826Z,25.97
2017-06-01T09:31:05.239Z,26.02
2017-06-01T09:32:20.878Z,26
2017-06-01T09:33:36.568Z,25.74
2017-06-01T09:34:50.960Z,25.62
2017-06-01T09:36:06.448Z,25.61
2017-06-01T09:37:22.421Z,25.66
2017-06-01T09:38:37.828Z,25.65
2017-06-01T09:39:53.265Z,25.61
2017-06-01T09:41:07.478Z,25.62
2017-06-01T09:42:21.851Z,25.65
2017-06-01T09:43:37.449Z,25.44
2017-06-01T09:44:51.451Z,25.31
2017-06-01T09:46:06.992Z,25.15
2017-06-01T09:47:22.649Z,25.1
2017-06-01T09:48:38.138Z,25.17
2017-06-01T09:49:53.622Z,25.42
2017-06-01T09:51:09.316Z,25.77
2017-06-01T09:52:23.687Z,25.96
2017-06-01T09:53:38.099Z,26.19
2017-06-01T09:54:53.861Z,26.33
2017-06-01T09:56:40.095Z,26.12
2017-06-01T09:57:55.784Z,25.96
2017-06-01T09:59:10.860Z,26.11
2017-06-01T10:00:26.374Z,26.24
2017-06-01T10:01:40.454Z,26.12
2017-06-01T10:02:56.069Z,25.62
2017-06-01T10:04:10.288Z,25.5
2017-06-01T10:05:25.802Z,25.39
2017-06-01T10:06:41.445Z,25.37
2017-06-01T10:07:55.928Z,25.28
2017-06-01T10:09:11.377Z,25.19
2017-06-01T10:10:26.870Z,25.17
2017-06-01T10:12:12.338Z,25.17
2017-06-01T10:13:28.038Z,25.09
2017-06-01T10:14:42.191Z,25.37
2017-06-01T10:15:57.764Z,25.55
2017-06-01T10:17:13.231Z,25.92
2017-06-01T10:18:28.936Z,26.15
2017-06-01T10:19:43.082Z,26.22
2017-06-01T10:20:58.600Z,26.22
2017-06-01T10:22:14.170Z,26.25
2017-06-01T10:23:29.893Z,26.46
2017-06-01T10:24:45.292Z,26.31
2017-06-01T10:26:00.925Z,26.12
2017-06-01T10:27:16.430Z,25.99
2017-06-01T10:28:32.101Z,26.14
2017-06-01T10:29:44.842Z,26.24
2017-06-01T10:30:58.977Z,26.27
2017-06-01T10:32:14.455Z,26.45
2017-06-01T10:33:30.105Z,26.52
2017-06-01T10:34:45.607Z,26.53
2017-06-01T10:36:01.112Z,26.46
2017-06-01T10:37:16.824Z,26.4
2017-06-01T10:38:32.475Z,26.48
2017-06-01T10:39:47.960Z,26.4
2017-06-01T10:41:03.693Z,26.46
2017-06-01T10:42:17.842Z,26.59
2017-06-01T10:43:32.274Z,26.55
2017-06-01T10:44:47.999Z,26.46
2017-06-01T10:46:03.549Z,26.22
2017-06-01T10:47:19.040Z,25.97
2017-06-01T10:48:34.862Z,26.02
2017-06-01T10:49:50.330Z,26.03
2017-06-01T10:51:03.309Z,26.06
2017-06-01T10:52:18.861Z,25.99
2017-06-01T10:53:34.289Z,26.12
2017-06-01T10:54:50.212Z,26.14
2017-06-01T10:56:05.715Z,26.04
2017-06-01T10:57:21.107Z,26.07
2017-06-01T10:58:36.639Z,26.04
2017-06-01T10:59:52.359Z,26.16
2017-06-01T11:01:07.876Z,26.29
2017-06-01T11:02:22.145Z,26.46
2017-06-01T11:03:37.576Z,26.3
2017-06-01T11:04:53.256Z,26.03
2017-06-01T11:06:08.686Z,25.68
2017-06-01T11:07:24.214Z,25.44
2017-06-01T11:08:39.656Z,25.31
2017-06-01T11:09:52.628Z,25.24
2017-06-01T11:11:08.267Z,25.39
2017-06-01T11:12:22.456Z,25.39
2017-06-01T11:13:38.259Z,25.43
2017-06-01T11:14:53.914Z,25.29
2017-06-01T11:16:09.401Z,25.15
2017-06-01T11:17:25.163Z,25.15
2017-06-01T11:18:39.327Z,25.24
2017-06-01T11:19:55.060Z,25.55
2017-06-01T11:21:10.561Z,25.47
2017-06-01T11:22:26.110Z,25.42
2017-06-01T11:23:41.550Z,25.34
2017-06-01T11:24:55.953Z,25.39
2017-06-01T11:26:11.462Z,25.55
2017-06-01T11:27:25.490Z,25.81
2017-06-01T11:28:41.000Z,25.99
2017-06-01T11:29:56.742Z,26.27
2017-06-01T11:31:12.185Z,26.34
2017-06-01T11:32:26.410Z,26.48
2017-06-01T11:33:41.512Z,26.31
2017-06-01T11:34:56.100Z,26.3
2017-06-01T11:36:11.561Z,26.4
2017-06-01T11:37:27.017Z,26.33
2017-06-01T11:38:41.387Z,26.19
2017-06-01T11:39:57.079Z,26.25
2017-06-01T11:41:12.578Z,26.34
2017-06-01T11:42:28.070Z,26.25
2017-06-01T11:43:43.496Z,26.12
2017-06-01T11:44:59.155Z,26.24
2017-06-01T11:46:14.595Z,26.31
2017-06-01T11:47:28.747Z,26.39
2017-06-01T11:48:42.918Z,26.39
2017-06-01T11:49:58.981Z,26.4
2017-06-01T11:51:14.856Z,26.29
2017-06-01T11:52:30.505Z,26.21
2017-06-01T11:53:44.657Z,25.93
2017-06-01T11:55:00.408Z,25.87
2017-06-01T11:56:15.879Z,25.99
2017-06-01T11:57:31.556Z,26.04
2017-06-01T11:58:47.210Z,26.12
2017-06-01T12:00:02.255Z,26.16
2017-06-01T12:01:17.757Z,26.21
2017-06-01T12:02:33.264Z,26.11
2017-06-01T12:03:48.735Z,25.97
2017-06-01T12:05:04.446Z,25.88
2017-06-01T12:06:19.913Z,25.85
2017-06-01T12:07:35.332Z,25.84
2017-06-01T12:08:50.843Z,25.88
2017-06-01T12:10:06.519Z,25.88
2017-06-01T12:11:20.698Z,25.88
2017-06-01T12:12:35.000Z,25.97
2017-06-01T12:13:50.391Z,25.92
2017-06-01T12:15:05.899Z,25.66
2017-06-01T12:16:21.567Z,25.42
2017-06-01T12:17:37.247Z,25.12
2017-06-01T12:18:52.721Z,24.88
2017-06-01T12:20:08.430Z,24.62
2017-06-01T12:21:24.141Z,24.62
2017-06-01T12:22:39.663Z,24.47
2017-06-01T12:23:55.095Z,24.47
2017-06-01T12:25:10.819Z,24.57
2017-06-01T12:26:26.557Z,24.45
2017-06-01T12:27:41.646Z,24.32
2017-06-01T12:28:57.192Z,24.24
2017-06-01T12:30:12.317Z,24.24
2017-06-01T12:31:25.687Z,24.28
2017-06-01T12:32:39.894Z,24.16
2017-06-01T12:33:55.365Z,24.27
2017-06-01T12:35:10.838Z,24.17
2017-06-01T12:36:26.533Z,24.25
2017-06-01T12:37:40.799Z,24.19
2017-06-01T12:38:56.286Z,24.25
2017-06-01T12:40:11.724Z,24.31
2017-06-01T12:41:27.486Z,24.29
2017-06-01T12:42:43.412Z,24.09
2017-06-01T12:43:56.038Z,24.01
2017-06-01T12:45:11.592Z,24.05
2017-06-01T12:46:27.113Z,24
2017-06-01T12:47:42.655Z,24.06
2017-06-01T12:48:56.892Z,23.95
2017-06-01T12:50:12.600Z,23.95
2017-06-01T12:51:28.035Z,23.88
2017-06-01T12:52:43.542Z,23.92
2017-06-01T12:53:59.068Z,23.88
2017-06-01T12:55:14.516Z,23.82
2017-06-01T12:56:29.931Z,23.73
2017-06-01T12:57:45.635Z,23.6
2017-06-01T12:59:31.936Z,23.36
2017-06-01T13:00:47.440Z,23.27
2017-06-01T13:02:02.909Z,23.18
2017-06-01T13:03:18.399Z,23.13
2017-06-01T13:04:33.839Z,23.13
2017-06-01T13:05:49.382Z,23.13
2017-06-01T13:07:04.851Z,23.06
2017-06-01T13:08:19.549Z,23.05
2017-06-01T13:09:34.996Z,22.95
2017-06-01T13:10:49.190Z,22.99
2017-06-01T13:12:04.684Z,22.99
2017-06-01T13:13:20.173Z,22.98
2017-06-01T13:14:35.706Z,22.89
2017-06-01T13:15:51.164Z,22.89
2017-06-01T13:17:06.926Z,23.01
2017-06-01T13:18:21.149Z,23.02
2017-06-01T13:19:36.817Z,23.03
2017-06-01T13:20:52.332Z,22.99
2017-06-01T13:22:07.880Z,23.01
2017-06-01T13:23:23.319Z,23.01
2017-06-01T13:24:37.533Z,23.01
2017-06-01T13:25:53.022Z,23.05
2017-06-01T13:27:07.336Z,22.95
2017-06-01T13:28:22.831Z,22.86
2017-06-01T13:29:38.329Z,22.85
2017-06-01T13:30:53.830Z,22.79
2017-06-01T13:32:09.427Z,22.75
2017-06-01T13:33:25.221Z,22.68
2017-06-01T13:34:39.307Z,22.67
2017-06-01T13:35:54.783Z,22.65
2017-06-01T13:37:10.259Z,22.6
2017-06-01T13:38:26.017Z,22.61
2017-06-01T13:39:40.144Z,22.52
2017-06-01T13:40:55.626Z,22.53
2017-06-01T13:42:09.825Z,22.65
2017-06-01T13:43:25.246Z,22.5
2017-06-01T13:45:11.718Z,22.63
2017-06-01T13:46:27.819Z,22.63
2017-06-01T13:47:42.054Z,22.67
2017-06-01T13:48:57.465Z,22.71
2017-06-01T13:50:11.293Z,22.76
2017-06-01T13:51:25.496Z,22.65
2017-06-01T13:52:39.660Z,22.8
2017-06-01T13:53:55.140Z,22.71
2017-06-01T13:55:09.304Z,22.65
2017-06-01T13:56:24.716Z,22.65
2017-06-01T13:57:40.227Z,22.63
2017-06-01T13:58:55.935Z,22.65
2017-06-01T14:00:11.356Z,22.67
2017-06-01T14:01:25.545Z,22.67
2017-06-01T14:02:41.059Z,22.64
2017-06-01T14:03:56.573Z,22.63
2017-06-01T14:05:10.729Z,22.64
2017-06-01T14:06:26.491Z,22.67
2017-06-01T14:07:40.698Z,22.65
2017-06-01T14:08:56.202Z,22.52
2017-06-01T14:10:11.724Z,22.53
2017-06-01T14:11:27.102Z,22.55
2017-06-01T14:12:42.548Z,22.58
2017-06-01T14:13:56.682Z,22.6
2017-06-01T14:15:12.499Z,22.65
2017-06-01T14:16:28.191Z,22.61
2017-06-01T14:17:43.658Z,22.65
2017-06-01T14:18:59.375Z,22.67
2017-06-01T14:20:14.968Z,22.65
2017-06-01T14:21:30.671Z,22.63
2017-06-01T14:22:46.146Z,22.58
2017-06-01T14:24:01.632Z,22.53
2017-06-01T14:25:17.968Z,22.61
2017-06-01T14:26:33.732Z,22.63
2017-06-01T14:27:49.472Z,22.6
2017-06-01T14:29:04.969Z,22.55
2017-06-01T14:30:20.455Z,22.58
2017-06-01T14:31:36.799Z,22.52
2017-06-01T14:32:52.338Z,22.4
2017-06-01T14:34:07.840Z,22.27
2017-06-01T14:35:23.407Z,22.26
2017-06-01T14:36:39.407Z,22.26
2017-06-01T14:37:53.574Z,22.33
2017-06-01T14:39:07.840Z,22.26
2017-06-01T14:40:23.334Z,22.38
2017-06-01T14:41:38.851Z,22.28
2017-06-01T14:42:54.509Z,22.46
2017-06-01T14:44:40.895Z,22.38
2017-06-01T14:45:56.556Z,22.42
2017-06-01T14:47:12.293Z,22.45
2017-06-01T14:48:27.721Z,22.4
2017-06-01T14:49:41.890Z,22.42
2017-06-01T14:50:57.354Z,22.42
2017-06-01T14:52:12.951Z,22.34
2017-06-01T14:53:28.442Z,22.39
2017-06-01T14:54:42.654Z,22.31
2017-06-01T14:55:55.377Z,22.26
2017-06-01T14:57:11.074Z,22.23
2017-06-01T14:58:26.527Z,22.27
2017-06-01T14:59:41.930Z,22.39
2017-06-01T15:00:57.415Z,22.35
2017-06-01T15:02:13.307Z,22.38
2017-06-01T15:03:28.819Z,22.31
2017-06-01T15:04:44.271Z,22.33
2017-06-01T15:05:58.123Z,22.27
2017-06-01T15:07:14.325Z,22.33
2017-06-01T15:08:29.785Z,22.34
2017-06-01T15:09:45.200Z,22.42
2017-06-01T15:11:00.617Z,22.39
2017-06-01T15:12:16.682Z,22.24
2017-06-01T15:13:32.200Z,22.27
2017-06-01T15:14:46.263Z,22.23
2017-06-01T15:16:01.676Z,22.27
2017-06-01T15:17:17.426Z,22.27
2017-06-01T15:18:31.609Z,22.26
2017-06-01T15:19:46.684Z,22.33
2017-06-01T15:21:01.071Z,22.23
2017-06-01T15:22:16.835Z,22.27
2017-06-01T15:23:32.406Z,22.26
2017-06-01T15:24:47.888Z,22.16
2017-06-01T15:26:03.451Z,22.24
2017-06-01T15:27:19.223Z,22.21
2017-06-01T15:28:34.824Z,22.23
2017-06-01T15:29:49.017Z,22.23
2017-06-01T15:31:04.463Z,22.23
2017-06-01T15:32:20.183Z,22.28
2017-06-01T15:33:35.656Z,22.21
2017-06-01T15:34:51.130Z,22.16
2017-06-01T15:36:06.847Z,22.2
2017-06-01T15:37:22.596Z,22.2
2017-06-01T15:38:38.305Z,22.2
2017-06-01T15:39:54.011Z,22.13
2017-06-01T15:41:09.456Z,22.16
2017-06-01T15:42:25.285Z,22.2
2017-06-01T15:43:40.815Z,22.06
2017-06-01T15:44:54.928Z,21.97
2017-06-01T15:46:09.064Z,21.98
2017-06-01T15:47:24.843Z,21.9
2017-06-01T15:48:40.616Z,21.94
2017-06-01T15:49:56.087Z,22.06
2017-06-01T15:51:11.487Z,22.05
2017-06-01T15:52:26.974Z,22.11
2017-06-01T15:53:42.613Z,22.06
2017-06-01T15:54:56.757Z,22.03
2017-06-01T15:56:12.266Z,22.01
2017-06-01T15:57:27.773Z,22.02
2017-06-01T15:58:43.479Z,21.96
2017-06-01T15:59:58.940Z,22.11
2017-06-01T16:01:13.089Z,22.12
2017-06-01T16:02:28.796Z,22.11
2017-06-01T16:03:44.494Z,22.16
2017-06-01T16:05:00.243Z,22.08
2017-06-01T16:06:15.676Z,22.02
2017-06-01T16:07:31.163Z,22.02
2017-06-01T16:08:47.003Z,22.03
2017-06-01T16:10:02.465Z,22.11
2017-06-01T16:11:16.523Z,22.08
2017-06-01T16:12:31.649Z,22.05
2017-06-01T16:13:47.833Z,22.13